createdAt,value
2022-09-22T00:01:35.977Z,30.38
2022-09-22T00:04:07.587Z,31.98
2022-09-22T00:06:38.779Z,32.50
2022-09-22T00:09:08.489Z,32.90
2022-09-22T00:11:39.038Z,32.67
2022-09-22T00:14:10.068Z,33.05
2022-09-22T00:16:41.985Z,33.45
2022-09-22T00:19:12.792Z,33.92
2022-09-22T00:21:41.244Z,33.45
2022-09-22T00:24:09.263Z,33.50
2022-09-22T00:26:38.338Z,35.70
2022-09-22T00:29:09.329Z,32.80
2022-09-22T00:31:38.287Z,33.92
2022-09-22T00:34:06.557Z,34.05
2022-09-22T00:36:36.211Z,34.88
2022-09-22T00:39:04.293Z,35.30
2022-09-22T00:41:36.323Z,34.45
2022-09-22T00:46:54.583Z,35.42
2022-09-22T00:49:28.698Z,36.03
2022-09-22T00:51:57.985Z,37.03
2022-09-22T00:54:26.244Z,37.33
2022-09-22T00:56:58.963Z,39.53
2022-09-22T00:59:27.905Z,41.75
2022-09-22T01:01:56.655Z,42.15
2022-09-22T01:04:24.688Z,44.33
2022-09-22T01:06:53.966Z,43.72
2022-09-22T01:09:24.056Z,44.05
2022-09-22T01:11:52.867Z,42.50
2022-09-22T01:14:30.184Z,43.90
2022-09-22T01:17:05.932Z,44.92
2022-09-22T01:20:10.609Z,44.85
2022-09-22T01:23:01.389Z,50.10
2022-09-22T01:25:51.096Z,49.17
2022-09-22T01:28:45.963Z,52.70
2022-09-22T01:31:19.180Z,54.72
2022-09-22T01:33:53.143Z,54.97
2022-09-22T01:36:27.145Z,54.58
2022-09-22T01:39:03.812Z,55.88
2022-09-22T01:41:48.902Z,55.63
2022-09-22T01:44:21.606Z,55.20
2022-09-22T01:46:55.706Z,54.28
2022-09-22T01:49:27.657Z,52.47
2022-09-22T01:51:59.327Z,53.00
2022-09-22T01:54:33.041Z,54.55
2022-09-22T01:57:19.521Z,50.15
2022-09-22T01:59:52.717Z,51.22
2022-09-22T02:02:29.278Z,47.38
2022-09-22T02:05:01.472Z,49.72
2022-09-22T02:10:06.736Z,49.38
2022-09-22T02:12:35.817Z,51.03
2022-09-22T02:15:04.554Z,50.50
2022-09-22T02:17:35.411Z,53.03
2022-09-22T02:20:06.420Z,52.40
2022-09-22T02:22:34.961Z,54.42
2022-09-22T02:25:02.749Z,51.58
2022-09-22T02:27:36.717Z,53.05
2022-09-22T02:30:09.452Z,53.17
2022-09-22T02:32:42.533Z,50.22
2022-09-22T02:35:11.166Z,50.80
2022-09-22T02:37:46.299Z,50.65
2022-09-22T02:40:23.332Z,50.97
2022-09-22T02:43:00.935Z,49.60
2022-09-22T02:45:33.060Z,49.92
2022-09-22T02:50:35.217Z,47.05
2022-09-22T02:53:05.516Z,52.75
2022-09-22T02:55:33.249Z,51.65
2022-09-22T02:58:01.417Z,54.40
2022-09-22T03:00:29.351Z,55.15
2022-09-22T03:02:57.048Z,52.13
2022-09-22T03:05:26.690Z,51.03
2022-09-22T03:07:55.672Z,54.05
2022-09-22T03:10:23.507Z,51.80
2022-09-22T03:13:15.032Z,54.70
2022-09-22T03:15:39.719Z,50.30
2022-09-22T03:18:07.569Z,51.13
2022-09-22T03:20:37.213Z,48.17
2022-09-22T03:23:05.307Z,49.03
2022-09-22T03:25:33.518Z,45.33
2022-09-22T03:28:01.505Z,48.75
2022-09-22T03:30:29.870Z,49.20
2022-09-22T03:32:57.871Z,47.70
2022-09-22T03:35:25.575Z,49.60
2022-09-22T03:37:54.897Z,49.15
2022-09-22T03:40:23.255Z,48.28
2022-09-22T03:42:51.093Z,44.88
2022-09-22T03:45:19.222Z,42.63
2022-09-22T03:47:47.441Z,43.38
2022-09-22T03:50:15.247Z,42.80
2022-09-22T03:52:44.901Z,43.15
2022-09-22T03:55:14.065Z,42.47
2022-09-22T03:57:43.767Z,40.65
2022-09-22T04:00:15.379Z,40.30
2022-09-22T04:02:43.531Z,39.13
2022-09-22T04:05:11.597Z,39.83
2022-09-22T04:07:39.935Z,41.38
2022-09-22T04:10:08.975Z,39.85
2022-09-22T04:12:38.161Z,39.08
2022-09-22T04:15:07.303Z,40.10
2022-09-22T04:17:36.964Z,42.90
2022-09-22T04:20:05.593Z,42.40
2022-09-22T04:22:33.751Z,46.42
2022-09-22T04:25:01.577Z,42.30
2022-09-22T04:27:29.302Z,42.03
2022-09-22T04:30:00.799Z,40.35
2022-09-22T04:32:28.626Z,41.28
2022-09-22T04:34:56.365Z,40.60
2022-09-22T04:37:24.698Z,41.95
2022-09-22T04:39:54.229Z,44.03
2022-09-22T04:42:21.995Z,45.35
2022-09-22T04:44:50.065Z,45.35
2022-09-22T04:47:19.468Z,44.53
2022-09-22T04:49:47.181Z,43.10
2022-09-22T04:52:15.057Z,42.70
2022-09-22T04:54:42.946Z,44.33
2022-09-22T04:57:10.665Z,41.10
2022-09-22T04:59:38.539Z,43.00
2022-09-22T05:02:06.512Z,41.35
2022-09-22T05:04:35.561Z,42.70
2022-09-22T05:07:03.470Z,45.80
2022-09-22T05:09:31.700Z,47.60
2022-09-22T05:12:01.113Z,48.08
2022-09-22T05:14:29.025Z,44.65
2022-09-22T05:16:57.204Z,44.92
2022-09-22T05:19:25.385Z,46.03
2022-09-22T05:21:54.722Z,47.78
2022-09-22T05:24:22.732Z,46.15
2022-09-22T05:26:50.539Z,46.72
2022-09-22T05:29:18.692Z,47.50
2022-09-22T05:31:47.236Z,48.70
2022-09-22T05:34:14.997Z,49.08
2022-09-22T05:36:42.940Z,47.58
2022-09-22T05:39:12.257Z,47.97
2022-09-22T05:41:40.188Z,47.55
2022-09-22T05:44:08.196Z,48.20
2022-09-22T05:46:36.081Z,47.28
2022-09-22T05:49:03.786Z,51.25
2022-09-22T05:51:31.752Z,48.88
2022-09-22T05:53:59.645Z,44.50
2022-09-22T05:56:28.971Z,46.17
2022-09-22T05:58:56.875Z,46.35
2022-09-22T06:01:25.470Z,44.22
2022-09-22T06:03:53.293Z,46.28
2022-09-22T06:06:21.269Z,48.58
2022-09-22T06:08:49.407Z,40.53
2022-09-22T06:11:17.201Z,42.97
2022-09-22T06:13:50.420Z,41.75
2022-09-22T06:16:18.544Z,42.03
2022-09-22T06:18:46.597Z,43.05
2022-09-22T06:21:14.331Z,44.58
2022-09-22T06:23:43.136Z,36.38
2022-09-22T06:26:11.808Z,38.85
2022-09-22T06:28:39.540Z,41.45
2022-09-22T06:31:08.909Z,40.15
2022-09-22T06:33:36.813Z,34.97
2022-09-22T06:36:07.934Z,31.63
2022-09-22T06:38:35.974Z,30.70
2022-09-22T06:41:04.251Z,26.20
2022-09-22T06:43:37.764Z,27.95
2022-09-22T06:46:06.173Z,24.35
2022-09-22T06:48:35.683Z,25.30
2022-09-22T06:51:03.433Z,25.80
2022-09-22T06:53:32.266Z,23.52
2022-09-22T06:56:01.969Z,20.63
2022-09-22T06:58:38.622Z,22.30
2022-09-22T07:01:15.240Z,22.98
2022-09-22T07:03:46.057Z,18.08
2022-09-22T07:06:20.225Z,17.08
2022-09-22T07:08:50.321Z,15.98
2022-09-22T07:11:23.440Z,16.02
2022-09-22T07:13:53.522Z,16.92
2022-09-22T07:16:24.221Z,17.38
2022-09-22T07:18:56.317Z,17.60
2022-09-22T07:21:26.329Z,16.83
2022-09-22T07:23:56.239Z,14.73
2022-09-22T07:26:26.416Z,14.73
2022-09-22T07:28:54.978Z,17.10
2022-09-22T07:31:28.438Z,16.67
2022-09-22T07:34:00.104Z,16.38
2022-09-22T07:36:30.025Z,16.63
2022-09-22T07:38:59.404Z,16.95
2022-09-22T07:41:28.872Z,17.25
2022-09-22T07:44:18.566Z,17.65
2022-09-22T07:46:47.051Z,15.68
2022-09-22T07:49:17.586Z,15.40
2022-09-22T07:51:45.347Z,18.20
2022-09-22T07:54:13.376Z,16.98
2022-09-22T07:56:43.606Z,14.52
2022-09-22T07:59:13.074Z,14.35
2022-09-22T08:01:44.358Z,14.68
2022-09-22T08:04:16.777Z,12.98
2022-09-22T08:06:48.616Z,13.55
2022-09-22T08:09:18.262Z,13.68
2022-09-22T08:11:48.467Z,14.07
2022-09-22T08:14:18.185Z,13.82
2022-09-22T08:16:46.828Z,12.68
2022-09-22T08:19:15.647Z,14.13
2022-09-22T08:21:49.321Z,13.80
2022-09-22T08:24:22.273Z,13.18
2022-09-22T08:26:52.340Z,12.23
2022-09-22T08:29:21.470Z,11.57
2022-09-22T08:31:51.398Z,11.48
2022-09-22T08:34:20.098Z,11.85
2022-09-22T08:36:51.078Z,11.68
2022-09-22T08:39:19.447Z,12.40
2022-09-22T08:42:02.093Z,11.82
2022-09-22T08:44:37.385Z,11.98
2022-09-22T08:47:05.776Z,9.77
2022-09-22T08:49:56.254Z,9.25
2022-09-22T08:52:32.198Z,9.77
2022-09-22T08:55:01.959Z,9.13
2022-09-22T08:57:46.041Z,9.35
2022-09-22T09:00:17.103Z,7.65
2022-09-22T09:02:52.292Z,9.15
2022-09-22T09:06:00.193Z,10.45
2022-09-22T09:08:48.059Z,10.82
2022-09-22T09:11:31.891Z,10.00
2022-09-22T09:14:18.481Z,8.57
2022-09-22T09:16:51.677Z,8.27
2022-09-22T09:19:23.441Z,7.40
2022-09-22T09:21:53.412Z,7.80
2022-09-22T09:27:23.832Z,6.38
2022-09-22T09:30:01.315Z,5.15
2022-09-22T09:32:37.641Z,5.57
2022-09-22T09:35:07.063Z,5.30
2022-09-22T09:37:35.706Z,5.68
2022-09-22T09:40:08.530Z,5.32
2022-09-22T09:42:36.857Z,4.88
2022-09-22T09:45:05.715Z,5.35
2022-09-22T09:47:59.734Z,4.53
2022-09-22T09:50:32.362Z,4.53
2022-09-22T09:53:00.534Z,4.82
2022-09-22T09:55:31.669Z,4.90
2022-09-22T09:58:03.699Z,5.75
2022-09-22T10:00:31.965Z,5.63
2022-09-22T10:03:24.851Z,4.82
2022-09-22T10:05:59.036Z,5.32
2022-09-22T10:08:28.277Z,5.03
2022-09-22T10:11:00.034Z,5.03
2022-09-22T10:13:31.665Z,4.50
2022-09-22T10:16:06.756Z,4.75
2022-09-22T10:18:40.290Z,4.10
2022-09-22T10:21:15.720Z,3.60
2022-09-22T10:23:47.569Z,3.58
2022-09-22T10:26:26.306Z,4.40
2022-09-22T10:29:10.604Z,5.07
2022-09-22T10:31:39.437Z,4.72
2022-09-22T10:34:25.211Z,5.57
2022-09-22T10:36:53.689Z,4.53
2022-09-22T10:39:28.208Z,5.35
2022-09-22T10:41:57.746Z,5.13
2022-09-22T10:44:44.056Z,4.13
2022-09-22T10:47:31.321Z,5.70
2022-09-22T10:50:30.495Z,4.63
2022-09-22T10:53:11.928Z,4.05
2022-09-22T10:55:44.656Z,5.68
2022-09-22T10:58:27.728Z,3.20
2022-09-22T11:01:11.755Z,3.67
2022-09-22T11:04:06.998Z,2.72
2022-09-22T11:07:07.547Z,3.08
2022-09-22T11:09:59.567Z,3.50
2022-09-22T11:12:42.581Z,2.50
2022-09-22T11:15:24.632Z,2.30
2022-09-22T11:18:22.169Z,2.25
2022-09-22T11:20:59.680Z,2.13
2022-09-22T11:23:43.478Z,2.47
2022-09-22T11:26:29.953Z,2.88
2022-09-22T11:29:26.196Z,2.80
2022-09-22T11:32:03.996Z,2.58
2022-09-22T11:34:48.765Z,3.40
2022-09-22T11:37:28.193Z,3.13
2022-09-22T11:40:15.559Z,2.85
2022-09-22T11:42:53.088Z,3.15
2022-09-22T11:45:38.313Z,2.63
2022-09-22T11:48:18.681Z,2.75
2022-09-22T11:51:02.022Z,3.03
2022-09-22T11:53:46.534Z,3.50
2022-09-22T11:56:33.326Z,3.50
2022-09-22T11:59:05.400Z,3.00
2022-09-22T12:01:38.949Z,2.55
2022-09-22T12:04:20.900Z,2.90
2022-09-22T12:06:52.919Z,2.67
2022-09-22T12:09:35.914Z,2.70
2022-09-22T12:12:07.293Z,2.67
2022-09-22T12:14:36.197Z,2.88
2022-09-22T12:17:10.052Z,3.53
2022-09-22T12:19:53.349Z,3.85
2022-09-22T12:22:27.684Z,3.58
2022-09-22T12:24:55.810Z,3.80
2022-09-22T12:27:26.045Z,4.13
2022-09-22T12:29:56.209Z,5.32
2022-09-22T12:32:27.838Z,4.43
2022-09-22T12:35:01.465Z,3.97
2022-09-22T12:37:32.949Z,4.18
2022-09-22T12:40:19.896Z,3.03
2022-09-22T12:42:52.446Z,3.35
2022-09-22T12:48:00.488Z,2.60
2022-09-22T12:50:37.969Z,2.78
2022-09-22T12:53:12.358Z,2.40
2022-09-22T12:55:40.701Z,1.77
2022-09-22T12:58:39.993Z,2.88
2022-09-22T13:01:33.413Z,6.53
2022-09-22T13:04:19.516Z,5.32
2022-09-22T13:07:00.865Z,2.17
2022-09-22T13:09:33.912Z,3.72
2022-09-22T13:12:28.104Z,2.55
2022-09-22T13:15:11.076Z,2.35
2022-09-22T13:17:43.098Z,1.73
2022-09-22T13:20:19.833Z,2.10
2022-09-22T13:22:49.431Z,1.73
2022-09-22T13:25:22.849Z,1.85
2022-09-22T13:28:04.189Z,1.60
2022-09-22T13:30:33.020Z,1.95
2022-09-22T13:33:00.898Z,2.10
2022-09-22T13:35:31.607Z,2.42
2022-09-22T13:38:01.592Z,2.67
2022-09-22T13:40:34.733Z,2.47
2022-09-22T13:43:07.913Z,2.92
2022-09-22T13:45:38.974Z,2.47
2022-09-22T13:48:10.622Z,2.47
2022-09-22T13:50:43.866Z,2.57
2022-09-22T13:53:18.037Z,2.80
2022-09-22T13:55:49.402Z,3.13
2022-09-22T13:58:25.113Z,3.28
2022-09-22T14:01:14.515Z,3.45
2022-09-22T14:03:44.293Z,3.78
2022-09-22T14:06:16.069Z,3.28
2022-09-22T14:08:48.082Z,4.35
2022-09-22T14:11:19.500Z,4.32
2022-09-22T14:13:59.277Z,5.68
2022-09-22T14:16:32.413Z,7.50
2022-09-22T14:19:06.026Z,6.82
2022-09-22T14:21:41.253Z,6.22
2022-09-22T14:24:13.944Z,5.45
2022-09-22T14:26:47.516Z,4.15
2022-09-22T14:29:23.644Z,3.92
2022-09-22T14:31:56.412Z,4.82
2022-09-22T14:34:28.132Z,4.40
2022-09-22T14:36:56.589Z,4.30
2022-09-22T14:39:31.817Z,4.80
2022-09-22T14:42:08.900Z,4.30
2022-09-22T14:44:43.336Z,4.40
2022-09-22T14:47:24.055Z,3.72
2022-09-22T14:50:06.841Z,3.45
2022-09-22T14:52:39.123Z,3.53
2022-09-22T14:55:17.890Z,2.78
2022-09-22T14:57:49.015Z,2.85
2022-09-22T15:00:35.952Z,2.88
2022-09-22T15:03:08.368Z,3.17
2022-09-22T15:08:03.771Z,3.28
2022-09-22T15:10:35.157Z,5.70
2022-09-22T15:13:20.377Z,3.50
2022-09-22T15:15:50.132Z,2.90
2022-09-22T15:18:19.399Z,2.95
2022-09-22T15:20:51.809Z,3.10
2022-09-22T15:23:22.920Z,3.10
2022-09-22T15:25:54.172Z,3.10
2022-09-22T15:28:24.650Z,2.95
2022-09-22T15:30:53.538Z,4.68
2022-09-22T15:33:22.572Z,9.02
2022-09-22T15:35:54.493Z,4.75
2022-09-22T15:38:26.723Z,5.10
2022-09-22T15:40:57.324Z,6.18
2022-09-22T15:43:30.730Z,4.10
2022-09-22T15:46:01.490Z,3.70
2022-09-22T15:48:32.188Z,4.47
2022-09-22T15:51:04.406Z,4.32
2022-09-22T15:53:33.381Z,5.32
2022-09-22T15:56:05.272Z,6.32
2022-09-22T15:58:35.780Z,6.38
2022-09-22T16:01:05.561Z,6.00
2022-09-22T16:03:37.943Z,4.95
2022-09-22T16:06:12.703Z,5.03
2022-09-22T16:08:43.852Z,4.80
2022-09-22T16:11:15.586Z,5.35
2022-09-22T16:13:44.514Z,5.40
2022-09-22T16:16:12.567Z,5.93
2022-09-22T16:18:41.794Z,7.57
2022-09-22T16:21:19.555Z,7.10
2022-09-22T16:23:47.840Z,7.32
2022-09-22T16:26:17.374Z,6.70
2022-09-22T16:28:45.064Z,6.78
2022-09-22T16:31:13.601Z,8.02
2022-09-22T16:33:41.482Z,7.45
2022-09-22T16:36:09.256Z,7.68
2022-09-22T16:38:39.378Z,7.72
2022-09-22T16:41:08.769Z,7.80
2022-09-22T16:43:37.828Z,7.63
2022-09-22T16:46:23.861Z,7.68
2022-09-22T16:48:51.855Z,7.63
2022-09-22T16:51:20.526Z,9.65
2022-09-22T16:53:51.043Z,8.10
2022-09-22T16:56:18.901Z,10.00
2022-09-22T16:58:48.557Z,10.90
2022-09-22T17:01:19.762Z,10.27
2022-09-22T17:03:50.341Z,11.13
2022-09-22T17:06:23.050Z,9.98
2022-09-22T17:08:53.594Z,9.65
2022-09-22T17:11:23.352Z,9.27
2022-09-22T17:13:52.774Z,8.82
2022-09-22T17:16:24.655Z,9.38
2022-09-22T17:18:53.449Z,9.77
2022-09-22T17:21:22.761Z,8.68
2022-09-22T17:23:52.454Z,9.68
2022-09-22T17:26:21.308Z,10.30
2022-09-22T17:28:53.465Z,10.48
2022-09-22T17:31:23.567Z,8.80
2022-09-22T17:33:52.635Z,8.20
2022-09-22T17:36:23.867Z,7.15
2022-09-22T17:38:53.707Z,8.57
2022-09-22T17:41:24.045Z,7.63
2022-09-22T17:43:55.727Z,7.47
2022-09-22T17:46:26.118Z,7.22
2022-09-22T17:49:12.371Z,7.75
2022-09-22T17:52:02.000Z,7.90
2022-09-22T17:54:48.853Z,7.68
2022-09-22T17:57:19.122Z,7.88
2022-09-22T17:59:48.425Z,8.82
2022-09-22T18:02:18.637Z,8.25
2022-09-22T18:04:47.589Z,10.23
2022-09-22T18:07:17.874Z,10.85
2022-09-22T18:09:47.012Z,11.60
2022-09-22T18:12:21.193Z,10.82
2022-09-22T18:14:52.338Z,10.52
2022-09-22T18:17:23.101Z,10.20
2022-09-22T18:19:54.628Z,9.73
2022-09-22T18:22:23.950Z,8.80
2022-09-22T18:24:55.473Z,10.95
2022-09-22T18:27:26.905Z,9.50
2022-09-22T18:29:58.727Z,10.27
2022-09-22T18:34:55.516Z,11.98
2022-09-22T18:37:25.114Z,13.13
2022-09-22T18:39:52.977Z,12.57
2022-09-22T18:42:24.079Z,14.25
2022-09-22T18:44:52.721Z,16.13
2022-09-22T18:47:23.161Z,16.35
2022-09-22T18:49:51.388Z,16.15
2022-09-22T18:52:24.552Z,14.35
2022-09-22T18:54:54.527Z,15.73
2022-09-22T18:57:24.539Z,15.73
2022-09-22T18:59:54.123Z,15.40
2022-09-22T19:02:23.581Z,14.55
2022-09-22T19:04:52.186Z,15.15
2022-09-22T19:07:41.371Z,14.43
2022-09-22T19:10:12.557Z,10.57
2022-09-22T19:12:40.593Z,11.98
2022-09-22T19:15:13.544Z,11.80
2022-09-22T19:17:44.756Z,10.63
2022-09-22T19:20:14.523Z,10.32
2022-09-22T19:22:42.827Z,10.57
2022-09-22T19:25:11.602Z,10.75
2022-09-22T19:27:40.671Z,9.75
2022-09-22T19:30:09.866Z,9.00
2022-09-22T19:32:37.876Z,9.23
2022-09-22T19:35:08.449Z,8.50
2022-09-22T19:37:36.979Z,8.07
2022-09-22T19:40:05.907Z,7.50
2022-09-22T19:42:40.134Z,7.50
2022-09-22T19:45:09.045Z,8.90
2022-09-22T19:47:36.892Z,8.00
2022-09-22T19:50:07.981Z,8.55
2022-09-22T19:52:38.754Z,6.82
2022-09-22T19:55:07.373Z,8.18
2022-09-22T19:57:38.160Z,6.72
2022-09-22T20:00:06.928Z,7.70
2022-09-22T20:02:34.721Z,8.60
2022-09-22T20:05:02.469Z,9.70
2022-09-22T20:07:31.768Z,9.75
2022-09-22T20:10:02.800Z,10.48
2022-09-22T20:12:30.692Z,9.80
2022-09-22T20:14:58.825Z,10.98
2022-09-22T20:17:27.669Z,11.25
2022-09-22T20:19:55.390Z,10.75
2022-09-22T20:22:26.208Z,10.30
2022-09-22T20:24:57.217Z,9.80
2022-09-22T20:27:29.134Z,9.07
2022-09-22T20:29:57.810Z,9.32
2022-09-22T20:32:27.197Z,8.93
2022-09-22T20:34:56.528Z,9.93
2022-09-22T20:37:25.129Z,9.98
2022-09-22T20:39:53.498Z,10.07
2022-09-22T20:42:21.604Z,11.10
2022-09-22T20:44:51.034Z,10.43
2022-09-22T20:47:21.147Z,10.25
2022-09-22T20:49:51.933Z,9.93
2022-09-22T20:52:21.221Z,10.43
2022-09-22T20:54:49.574Z,10.10
2022-09-22T20:57:18.114Z,10.38
2022-09-22T20:59:46.324Z,9.82
2022-09-22T21:02:16.917Z,9.32
2022-09-22T21:04:45.054Z,9.65
2022-09-22T21:07:12.904Z,10.90
2022-09-22T21:09:58.553Z,9.18
2022-09-22T21:12:31.128Z,9.57
2022-09-22T21:14:59.501Z,10.00
2022-09-22T21:17:29.667Z,9.93
2022-09-22T21:19:57.814Z,8.93
2022-09-22T21:22:27.931Z,8.07
2022-09-22T21:24:56.361Z,9.25
2022-09-22T21:27:25.360Z,10.20
2022-09-22T21:29:53.467Z,10.30
2022-09-22T21:32:21.597Z,10.50
2022-09-22T21:34:51.269Z,11.02
2022-09-22T21:37:19.062Z,11.05
2022-09-22T21:39:47.484Z,12.27
2022-09-22T21:42:15.698Z,12.18
2022-09-22T21:44:43.546Z,16.15
2022-09-22T21:47:11.665Z,17.73
2022-09-22T21:49:39.457Z,22.33
2022-09-22T21:52:08.549Z,24.38
2022-09-22T21:54:37.159Z,23.50
2022-09-22T21:57:05.108Z,20.35
2022-09-22T21:59:32.838Z,19.02
2022-09-22T22:02:01.694Z,20.52
2022-09-22T22:04:29.611Z,19.48
2022-09-22T22:06:57.459Z,20.58
2022-09-22T22:09:26.978Z,20.48
2022-09-22T22:11:56.900Z,20.08
2022-09-22T22:14:26.293Z,20.38
2022-09-22T22:16:56.171Z,20.98
2022-09-22T22:19:27.005Z,21.17
2022-09-22T22:21:56.058Z,21.42
2022-09-22T22:24:33.197Z,22.08
2022-09-22T22:27:06.300Z,23.25
2022-09-22T22:29:36.359Z,21.33
2022-09-22T22:32:06.165Z,25.00
2022-09-22T22:34:34.410Z,25.10
2022-09-22T22:37:03.911Z,25.58
2022-09-22T22:39:32.561Z,24.45
2022-09-22T22:42:01.808Z,23.30
2022-09-22T22:44:29.702Z,26.70
2022-09-22T22:46:58.410Z,28.02
2022-09-22T22:49:27.134Z,27.58
2022-09-22T22:51:54.886Z,27.38
2022-09-22T22:54:23.117Z,28.20
2022-09-22T22:56:51.686Z,28.27
2022-09-22T22:59:20.994Z,27.67
2022-09-22T23:01:49.415Z,28.58
2022-09-22T23:04:17.610Z,27.95
2022-09-22T23:06:47.313Z,29.63
2022-09-22T23:09:17.825Z,28.38
2022-09-22T23:11:46.709Z,27.98
2022-09-22T23:14:15.971Z,29.40
2022-09-22T23:16:49.311Z,28.90
2022-09-22T23:19:18.700Z,28.00
2022-09-22T23:21:48.287Z,28.45
2022-09-22T23:24:18.942Z,30.35
2022-09-22T23:26:47.544Z,29.95
2022-09-22T23:29:15.428Z,31.83
2022-09-22T23:31:43.554Z,30.23
2022-09-22T23:34:13.021Z,29.63
2022-09-22T23:36:40.841Z,32.80
2022-09-22T23:39:09.192Z,31.80
2022-09-22T23:41:38.073Z,30.65
2022-09-22T23:44:07.524Z,31.63
2022-09-22T23:46:36.281Z,32.97
2022-09-22T23:49:05.270Z,31.35
2022-09-22T23:51:34.558Z,33.45
2022-09-22T23:54:02.479Z,34.30
2022-09-22T23:56:30.690Z,33.72
2022-09-22T23:58:58.753Z,34.40
